sensor_id;sensor_type;location;lat;lon;timestamp;P1;durP1;ratioP1;P2;durP2;ratioP2
76801;SDS011;66403;50.832;10.950;2023-01-09T00:02:35;3.50;;;1.90;;
76801;SDS011;66403;50.832;10.950;2023-01-09T00:07:39;3.42;;;1.95;;
76801;SDS011;66403;50.832;10.950;2023-01-09T00:12:40;2.08;;;1.45;;
76801;SDS011;66403;50.832;10.950;2023-01-09T00:17:41;3.53;;;2.28;;
76801;SDS011;66403;50.832;10.950;2023-01-09T00:22:41;2.90;;;2.22;;
76801;SDS011;66403;50.832;10.950;2023-01-09T00:27:41;2.80;;;2.47;;
76801;SDS011;66403;50.832;10.950;2023-01-09T00:32:42;2.25;;;1.55;;
76801;SDS011;66403;50.832;10.950;2023-01-09T00:37:42;4.15;;;2.50;;
76801;SDS011;66403;50.832;10.950;2023-01-09T00:42:44;2.95;;;2.25;;
76801;SDS011;66403;50.832;10.950;2023-01-09T00:47:52;3.35;;;2.47;;
76801;SDS011;66403;50.832;10.950;2023-01-09T00:52:52;4.30;;;2.67;;
76801;SDS011;66403;50.832;10.950;2023-01-09T00:57:54;2.00;;;1.80;;
76801;SDS011;66403;50.832;10.950;2023-01-09T01:02:54;3.50;;;2.15;;
76801;SDS011;66403;50.832;10.950;2023-01-09T01:07:55;3.20;;;2.17;;
76801;SDS011;66403;50.832;10.950;2023-01-09T01:12:55;2.60;;;2.25;;
76801;SDS011;66403;50.832;10.950;2023-01-09T01:17:56;3.40;;;2.17;;
76801;SDS011;66403;50.832;10.950;2023-01-09T01:22:56;3.35;;;2.40;;
76801;SDS011;66403;50.832;10.950;2023-01-09T01:27:57;2.13;;;1.73;;
76801;SDS011;66403;50.832;10.950;2023-01-09T01:32:57;2.53;;;2.10;;
76801;SDS011;66403;50.832;10.950;2023-01-09T01:37:58;3.35;;;2.40;;
76801;SDS011;66403;50.832;10.950;2023-01-09T01:42:58;4.80;;;2.87;;
76801;SDS011;66403;50.832;10.950;2023-01-09T01:48:03;3.20;;;2.45;;
76801;SDS011;66403;50.832;10.950;2023-01-09T01:53:16;5.43;;;2.47;;
76801;SDS011;66403;50.832;10.950;2023-01-09T01:58:23;3.90;;;2.30;;
76801;SDS011;66403;50.832;10.950;2023-01-09T02:03:26;3.70;;;1.75;;
76801;SDS011;66403;50.832;10.950;2023-01-09T02:08:27;2.35;;;2.13;;
76801;SDS011;66403;50.832;10.950;2023-01-09T02:13:27;4.78;;;1.80;;
76801;SDS011;66403;50.832;10.950;2023-01-09T02:23:52;4.18;;;2.20;;
76801;SDS011;66403;50.832;10.950;2023-01-09T02:34:20;1.67;;;1.23;;
76801;SDS011;66403;50.832;10.950;2023-01-09T02:39:36;1.33;;;1.10;;
76801;SDS011;66403;50.832;10.950;2023-01-09T02:44:42;1.25;;;0.68;;
76801;SDS011;66403;50.832;10.950;2023-01-09T02:49:50;1.05;;;0.40;;
76801;SDS011;66403;50.832;10.950;2023-01-09T02:54:59;0.43;;;0.10;;
76801;SDS011;66403;50.832;10.950;2023-01-09T03:00:10;0.28;;;0.28;;
76801;SDS011;66403;50.832;10.950;2023-01-09T03:05:21;0.45;;;0.28;;
76801;SDS011;66403;50.832;10.950;2023-01-09T03:10:27;0.20;;;0.20;;
76801;SDS011;66403;50.832;10.950;2023-01-09T03:15:35;0.10;;;0.10;;
76801;SDS011;66403;50.832;10.950;2023-01-09T03:20:37;0.60;;;0.30;;
76801;SDS011;66403;50.832;10.950;2023-01-09T03:25:38;1.58;;;0.28;;
76801;SDS011;66403;50.832;10.950;2023-01-09T03:30:38;0.10;;;0.10;;
76801;SDS011;66403;50.832;10.950;2023-01-09T03:35:39;0.50;;;0.20;;
76801;SDS011;66403;50.832;10.950;2023-01-09T03:40:39;0.40;;;0.28;;
76801;SDS011;66403;50.832;10.950;2023-01-09T03:45:42;0.65;;;0.40;;
76801;SDS011;66403;50.832;10.950;2023-01-09T03:50:42;0.28;;;0.20;;
76801;SDS011;66403;50.832;10.950;2023-01-09T03:55:45;0.20;;;0.20;;
76801;SDS011;66403;50.832;10.950;2023-01-09T04:00:47;0.10;;;0.10;;
76801;SDS011;66403;50.832;10.950;2023-01-09T04:05:51;0.22;;;0.15;;
76801;SDS011;66403;50.832;10.950;2023-01-09T04:10:51;0.85;;;0.10;;
76801;SDS011;66403;50.832;10.950;2023-01-09T04:15:52;0.32;;;0.30;;
76801;SDS011;66403;50.832;10.950;2023-01-09T04:20:52;0.35;;;0.30;;
76801;SDS011;66403;50.832;10.950;2023-01-09T04:25:52;0.80;;;0.30;;
76801;SDS011;66403;50.832;10.950;2023-01-09T04:30:53;0.40;;;0.40;;
76801;SDS011;66403;50.832;10.950;2023-01-09T04:35:53;0.20;;;0.17;;
76801;SDS011;66403;50.832;10.950;2023-01-09T04:40:54;1.17;;;0.40;;
76801;SDS011;66403;50.832;10.950;2023-01-09T04:45:54;0.30;;;0.30;;
76801;SDS011;66403;50.832;10.950;2023-01-09T04:50:55;0.35;;;0.35;;
76801;SDS011;66403;50.832;10.950;2023-01-09T04:55:55;0.70;;;0.35;;
76801;SDS011;66403;50.832;10.950;2023-01-09T05:00:56;0.50;;;0.20;;
76801;SDS011;66403;50.832;10.950;2023-01-09T05:05:56;0.20;;;0.20;;
76801;SDS011;66403;50.832;10.950;2023-01-09T05:10:56;0.22;;;0.22;;
76801;SDS011;66403;50.832;10.950;2023-01-09T05:15:57;0.30;;;0.20;;
76801;SDS011;66403;50.832;10.950;2023-01-09T05:20:57;0.20;;;0.20;;
76801;SDS011;66403;50.832;10.950;2023-01-09T05:25:58;0.20;;;0.20;;
76801;SDS011;66403;50.832;10.950;2023-01-09T05:30:58;0.38;;;0.30;;
76801;SDS011;66403;50.832;10.950;2023-01-09T05:35:59;0.20;;;0.20;;
76801;SDS011;66403;50.832;10.950;2023-01-09T05:40:59;0.47;;;0.47;;
76801;SDS011;66403;50.832;10.950;2023-01-09T05:45:59;0.50;;;0.40;;
76801;SDS011;66403;50.832;10.950;2023-01-09T05:51:00;0.75;;;0.65;;
76801;SDS011;66403;50.832;10.950;2023-01-09T05:56:00;1.25;;;0.50;;
76801;SDS011;66403;50.832;10.950;2023-01-09T06:01:01;0.95;;;0.52;;
76801;SDS011;66403;50.832;10.950;2023-01-09T06:06:01;0.57;;;0.28;;
76801;SDS011;66403;50.832;10.950;2023-01-09T06:11:02;0.30;;;0.30;;
76801;SDS011;66403;50.832;10.950;2023-01-09T06:16:02;0.90;;;0.45;;
76801;SDS011;66403;50.832;10.950;2023-01-09T06:21:03;0.20;;;0.20;;
76801;SDS011;66403;50.832;10.950;2023-01-09T06:26:03;0.20;;;0.20;;
76801;SDS011;66403;50.832;10.950;2023-01-09T06:31:03;0.40;;;0.38;;
76801;SDS011;66403;50.832;10.950;2023-01-09T06:36:07;0.32;;;0.32;;
76801;SDS011;66403;50.832;10.950;2023-01-09T06:41:07;0.35;;;0.35;;
76801;SDS011;66403;50.832;10.950;2023-01-09T06:46:08;0.32;;;0.22;;
76801;SDS011;66403;50.832;10.950;2023-01-09T06:51:09;0.22;;;0.20;;
76801;SDS011;66403;50.832;10.950;2023-01-09T06:56:09;0.20;;;0.20;;
76801;SDS011;66403;50.832;10.950;2023-01-09T07:01:10;0.20;;;0.20;;
76801;SDS011;66403;50.832;10.950;2023-01-09T07:06:10;0.20;;;0.20;;
76801;SDS011;66403;50.832;10.950;2023-01-09T07:11:11;0.10;;;0.10;;
76801;SDS011;66403;50.832;10.950;2023-01-09T07:16:11;0.10;;;0.10;;
76801;SDS011;66403;50.832;10.950;2023-01-09T07:21:12;1.05;;;0.40;;
76801;SDS011;66403;50.832;10.950;2023-01-09T07:26:12;0.52;;;0.32;;
76801;SDS011;66403;50.832;10.950;2023-01-09T07:31:13;2.80;;;0.30;;
76801;SDS011;66403;50.832;10.950;2023-01-09T07:36:13;0.45;;;0.28;;
76801;SDS011;66403;50.832;10.950;2023-01-09T07:41:14;0.10;;;0.10;;
76801;SDS011;66403;50.832;10.950;2023-01-09T07:46:14;0.50;;;0.30;;
76801;SDS011;66403;50.832;10.950;2023-01-09T07:51:15;2.10;;;0.50;;
76801;SDS011;66403;50.832;10.950;2023-01-09T07:56:15;1.52;;;0.50;;
76801;SDS011;66403;50.832;10.950;2023-01-09T08:01:15;1.27;;;0.10;;
76801;SDS011;66403;50.832;10.950;2023-01-09T08:06:16;1.50;;;0.60;;
76801;SDS011;66403;50.832;10.950;2023-01-09T08:11:17;0.40;;;0.25;;
76801;SDS011;66403;50.832;10.950;2023-01-09T08:16:18;2.33;;;0.40;;
76801;SDS011;66403;50.832;10.950;2023-01-09T08:21:18;0.50;;;0.50;;
76801;SDS011;66403;50.832;10.950;2023-01-09T08:26:19;1.58;;;0.10;;
76801;SDS011;66403;50.832;10.950;2023-01-09T08:31:19;1.13;;;0.30;;
76801;SDS011;66403;50.832;10.950;2023-01-09T08:36:20;7.38;;;3.20;;
76801;SDS011;66403;50.832;10.950;2023-01-09T08:41:20;1.95;;;1.10;;
76801;SDS011;66403;50.832;10.950;2023-01-09T08:46:39;0.80;;;0.40;;
76801;SDS011;66403;50.832;10.950;2023-01-09T08:51:59;0.20;;;0.20;;
76801;SDS011;66403;50.832;10.950;2023-01-09T08:56:59;0.25;;;0.25;;
76801;SDS011;66403;50.832;10.950;2023-01-09T09:02:00;1.40;;;0.38;;
76801;SDS011;66403;50.832;10.950;2023-01-09T09:07:00;1.13;;;0.60;;
76801;SDS011;66403;50.832;10.950;2023-01-09T09:12:01;0.55;;;0.30;;
76801;SDS011;66403;50.832;10.950;2023-01-09T09:17:01;2.38;;;0.20;;
76801;SDS011;66403;50.832;10.950;2023-01-09T09:22:02;0.60;;;0.40;;
76801;SDS011;66403;50.832;10.950;2023-01-09T09:27:02;0.17;;;0.17;;
76801;SDS011;66403;50.832;10.950;2023-01-09T09:32:03;0.20;;;0.20;;
76801;SDS011;66403;50.832;10.950;2023-01-09T09:37:04;1.27;;;0.40;;
76801;SDS011;66403;50.832;10.950;2023-01-09T09:42:22;0.82;;;0.28;;
76801;SDS011;66403;50.832;10.950;2023-01-09T09:47:47;0.65;;;0.40;;
76801;SDS011;66403;50.832;10.950;2023-01-09T09:53:06;0.68;;;0.50;;
76801;SDS011;66403;50.832;10.950;2023-01-09T09:58:30;0.30;;;0.30;;
76801;SDS011;66403;50.832;10.950;2023-01-09T10:03:38;1.67;;;0.50;;
76801;SDS011;66403;50.832;10.950;2023-01-09T10:08:47;0.52;;;0.30;;
76801;SDS011;66403;50.832;10.950;2023-01-09T10:13:53;3.08;;;0.50;;
76801;SDS011;66403;50.832;10.950;2023-01-09T10:24:47;0.93;;;0.32;;
76801;SDS011;66403;50.832;10.950;2023-01-09T10:29:53;0.68;;;0.32;;
76801;SDS011;66403;50.832;10.950;2023-01-09T10:40:13;0.13;;;0.13;;
76801;SDS011;66403;50.832;10.950;2023-01-09T10:50:31;2.50;;;1.42;;
76801;SDS011;66403;50.832;10.950;2023-01-09T10:55:40;0.90;;;0.22;;
76801;SDS011;66403;50.832;10.950;2023-01-09T11:00:43;0.20;;;0.20;;
76801;SDS011;66403;50.832;10.950;2023-01-09T11:05:54;1.00;;;0.28;;
76801;SDS011;66403;50.832;10.950;2023-01-09T11:10:58;0.75;;;0.60;;
76801;SDS011;66403;50.832;10.950;2023-01-09T11:16:07;1.63;;;0.95;;
76801;SDS011;66403;50.832;10.950;2023-01-09T11:21:34;2.10;;;0.70;;
76801;SDS011;66403;50.832;10.950;2023-01-09T11:26:37;1.30;;;0.80;;
76801;SDS011;66403;50.832;10.950;2023-01-09T11:31:38;3.10;;;1.15;;
76801;SDS011;66403;50.832;10.950;2023-01-09T11:36:39;3.65;;;1.98;;
76801;SDS011;66403;50.832;10.950;2023-01-09T11:41:41;1.88;;;0.68;;
76801;SDS011;66403;50.832;10.950;2023-01-09T11:46:41;0.47;;;0.30;;
76801;SDS011;66403;50.832;10.950;2023-01-09T11:51:43;0.20;;;0.20;;
76801;SDS011;66403;50.832;10.950;2023-01-09T11:56:47;1.05;;;0.28;;
76801;SDS011;66403;50.832;10.950;2023-01-09T12:33:57;0.30;;;0.30;;
76801;SDS011;66403;50.832;10.950;2023-01-09T12:39:30;1.23;;;0.40;;
76801;SDS011;66403;50.832;10.950;2023-01-09T12:44:57;2.20;;;0.40;;
76801;SDS011;66403;50.832;10.950;2023-01-09T12:55:26;0.73;;;0.55;;
76801;SDS011;66403;50.832;10.950;2023-01-09T13:00:31;0.63;;;0.43;;
76801;SDS011;66403;50.832;10.950;2023-01-09T13:05:35;0.73;;;0.28;;
76801;SDS011;66403;50.832;10.950;2023-01-09T13:10:38;0.35;;;0.22;;
76801;SDS011;66403;50.832;10.950;2023-01-09T13:15:44;2.05;;;0.70;;
76801;SDS011;66403;50.832;10.950;2023-01-09T13:21:06;0.90;;;0.40;;
76801;SDS011;66403;50.832;10.950;2023-01-09T13:26:27;1.63;;;0.60;;
76801;SDS011;66403;50.832;10.950;2023-01-09T13:31:40;1.42;;;0.80;;
76801;SDS011;66403;50.832;10.950;2023-01-09T13:36:48;0.80;;;0.45;;
76801;SDS011;66403;50.832;10.950;2023-01-09T13:41:56;1.60;;;1.10;;
76801;SDS011;66403;50.832;10.950;2023-01-09T13:47:26;1.35;;;1.00;;
76801;SDS011;66403;50.832;10.950;2023-01-09T13:57:42;0.85;;;0.40;;
76801;SDS011;66403;50.832;10.950;2023-01-09T14:08:01;2.38;;;0.32;;
76801;SDS011;66403;50.832;10.950;2023-01-09T14:13:07;2.40;;;0.40;;
76801;SDS011;66403;50.832;10.950;2023-01-09T14:18:14;0.22;;;0.20;;
76801;SDS011;66403;50.832;10.950;2023-01-09T14:23:22;2.30;;;1.10;;
76801;SDS011;66403;50.832;10.950;2023-01-09T14:28:27;0.35;;;0.32;;
76801;SDS011;66403;50.832;10.950;2023-01-09T14:33:28;1.33;;;0.30;;
76801;SDS011;66403;50.832;10.950;2023-01-09T14:54:29;1.50;;;0.55;;
76801;SDS011;66403;50.832;10.950;2023-01-09T14:59:32;0.82;;;0.40;;
76801;SDS011;66403;50.832;10.950;2023-01-09T15:04:32;0.90;;;0.80;;
76801;SDS011;66403;50.832;10.950;2023-01-09T15:09:42;1.02;;;0.57;;
76801;SDS011;66403;50.832;10.950;2023-01-09T15:14:44;0.63;;;0.40;;
76801;SDS011;66403;50.832;10.950;2023-01-09T15:19:45;2.63;;;0.70;;
76801;SDS011;66403;50.832;10.950;2023-01-09T15:24:45;0.60;;;0.60;;
76801;SDS011;66403;50.832;10.950;2023-01-09T15:29:46;0.55;;;0.45;;
76801;SDS011;66403;50.832;10.950;2023-01-09T15:34:47;2.28;;;0.47;;
76801;SDS011;66403;50.832;10.950;2023-01-09T15:39:48;0.73;;;0.70;;
76801;SDS011;66403;50.832;10.950;2023-01-09T15:44:48;0.68;;;0.38;;
76801;SDS011;66403;50.832;10.950;2023-01-09T15:49:51;1.83;;;0.98;;
76801;SDS011;66403;50.832;10.950;2023-01-09T15:54:51;0.40;;;0.40;;
76801;SDS011;66403;50.832;10.950;2023-01-09T15:59:52;1.10;;;0.55;;
76801;SDS011;66403;50.832;10.950;2023-01-09T16:04:53;1.08;;;0.88;;
76801;SDS011;66403;50.832;10.950;2023-01-09T16:09:54;4.13;;;1.55;;
76801;SDS011;66403;50.832;10.950;2023-01-09T16:14:55;0.90;;;0.73;;
76801;SDS011;66403;50.832;10.950;2023-01-09T16:20:13;1.02;;;0.60;;
76801;SDS011;66403;50.832;10.950;2023-01-09T16:25:31;1.52;;;0.57;;
76801;SDS011;66403;50.832;10.950;2023-01-09T16:30:36;0.95;;;0.73;;
76801;SDS011;66403;50.832;10.950;2023-01-09T16:35:38;0.43;;;0.40;;
76801;SDS011;66403;50.832;10.950;2023-01-09T16:40:38;1.65;;;0.60;;
76801;SDS011;66403;50.832;10.950;2023-01-09T16:45:39;1.40;;;0.75;;
76801;SDS011;66403;50.832;10.950;2023-01-09T16:50:41;1.15;;;0.63;;
76801;SDS011;66403;50.832;10.950;2023-01-09T16:55:42;1.75;;;0.70;;
76801;SDS011;66403;50.832;10.950;2023-01-09T17:00:43;1.92;;;0.60;;
76801;SDS011;66403;50.832;10.950;2023-01-09T17:05:49;0.70;;;0.47;;
76801;SDS011;66403;50.832;10.950;2023-01-09T17:10:52;0.90;;;0.52;;
76801;SDS011;66403;50.832;10.950;2023-01-09T17:15:54;0.50;;;0.50;;
76801;SDS011;66403;50.832;10.950;2023-01-09T17:20:56;1.70;;;1.25;;
76801;SDS011;66403;50.832;10.950;2023-01-09T17:25:58;1.90;;;1.33;;
76801;SDS011;66403;50.832;10.950;2023-01-09T17:31:17;2.80;;;1.70;;
76801;SDS011;66403;50.832;10.950;2023-01-09T17:41:30;1.25;;;0.63;;
76801;SDS011;66403;50.832;10.950;2023-01-09T17:46:32;0.95;;;0.65;;
76801;SDS011;66403;50.832;10.950;2023-01-09T17:51:34;0.73;;;0.70;;
76801;SDS011;66403;50.832;10.950;2023-01-09T17:56:34;0.85;;;0.70;;
76801;SDS011;66403;50.832;10.950;2023-01-09T18:01:37;1.05;;;0.77;;
76801;SDS011;66403;50.832;10.950;2023-01-09T18:06:37;2.63;;;1.60;;
76801;SDS011;66403;50.832;10.950;2023-01-09T18:11:38;0.80;;;0.80;;
76801;SDS011;66403;50.832;10.950;2023-01-09T18:16:39;2.70;;;1.30;;
76801;SDS011;66403;50.832;10.950;2023-01-09T18:21:39;0.60;;;0.30;;
76801;SDS011;66403;50.832;10.950;2023-01-09T18:26:39;1.10;;;0.60;;
76801;SDS011;66403;50.832;10.950;2023-01-09T18:31:40;0.75;;;0.50;;
76801;SDS011;66403;50.832;10.950;2023-01-09T18:36:41;2.80;;;0.68;;
76801;SDS011;66403;50.832;10.950;2023-01-09T18:41:42;1.15;;;0.55;;
76801;SDS011;66403;50.832;10.950;2023-01-09T18:46:42;0.60;;;0.50;;
76801;SDS011;66403;50.832;10.950;2023-01-09T18:51:42;1.58;;;0.73;;
76801;SDS011;66403;50.832;10.950;2023-01-09T18:56:43;0.82;;;0.52;;
76801;SDS011;66403;50.832;10.950;2023-01-09T19:01:46;2.55;;;0.68;;
76801;SDS011;66403;50.832;10.950;2023-01-09T19:06:47;1.10;;;0.55;;
76801;SDS011;66403;50.832;10.950;2023-01-09T19:11:48;1.02;;;0.70;;
76801;SDS011;66403;50.832;10.950;2023-01-09T19:16:48;0.77;;;0.45;;
76801;SDS011;66403;50.832;10.950;2023-01-09T19:21:49;0.60;;;0.38;;
76801;SDS011;66403;50.832;10.950;2023-01-09T19:26:49;0.35;;;0.30;;
76801;SDS011;66403;50.832;10.950;2023-01-09T19:31:50;3.08;;;0.65;;
76801;SDS011;66403;50.832;10.950;2023-01-09T19:36:52;1.73;;;0.68;;
76801;SDS011;66403;50.832;10.950;2023-01-09T19:41:52;1.58;;;0.85;;
76801;SDS011;66403;50.832;10.950;2023-01-09T19:46:53;1.05;;;0.47;;
76801;SDS011;66403;50.832;10.950;2023-01-09T19:51:53;1.40;;;0.55;;
76801;SDS011;66403;50.832;10.950;2023-01-09T19:56:54;1.05;;;0.52;;
76801;SDS011;66403;50.832;10.950;2023-01-09T20:01:55;0.80;;;0.60;;
76801;SDS011;66403;50.832;10.950;2023-01-09T20:06:56;2.47;;;0.70;;
76801;SDS011;66403;50.832;10.950;2023-01-09T20:11:57;3.20;;;0.75;;
76801;SDS011;66403;50.832;10.950;2023-01-09T20:16:57;1.08;;;0.73;;
76801;SDS011;66403;50.832;10.950;2023-01-09T20:22:03;3.20;;;0.98;;
76801;SDS011;66403;50.832;10.950;2023-01-09T20:27:03;1.02;;;0.68;;
76801;SDS011;66403;50.832;10.950;2023-01-09T20:32:04;1.20;;;0.90;;
76801;SDS011;66403;50.832;10.950;2023-01-09T20:37:06;2.05;;;0.93;;
76801;SDS011;66403;50.832;10.950;2023-01-09T20:42:07;2.40;;;1.08;;
76801;SDS011;66403;50.832;10.950;2023-01-09T20:47:07;1.25;;;0.80;;
76801;SDS011;66403;50.832;10.950;2023-01-09T20:52:07;1.08;;;0.93;;
76801;SDS011;66403;50.832;10.950;2023-01-09T20:57:08;2.28;;;1.42;;
76801;SDS011;66403;50.832;10.950;2023-01-09T21:02:11;1.58;;;1.00;;
76801;SDS011;66403;50.832;10.950;2023-01-09T21:07:13;2.10;;;0.93;;
76801;SDS011;66403;50.832;10.950;2023-01-09T21:12:14;1.80;;;1.08;;
76801;SDS011;66403;50.832;10.950;2023-01-09T21:17:33;3.45;;;1.27;;
76801;SDS011;66403;50.832;10.950;2023-01-09T21:22:34;4.03;;;0.90;;
76801;SDS011;66403;50.832;10.950;2023-01-09T21:27:36;2.20;;;1.25;;
76801;SDS011;66403;50.832;10.950;2023-01-09T21:32:39;1.38;;;0.93;;
76801;SDS011;66403;50.832;10.950;2023-01-09T21:37:39;1.60;;;1.27;;
76801;SDS011;66403;50.832;10.950;2023-01-09T21:42:40;3.42;;;1.10;;
76801;SDS011;66403;50.832;10.950;2023-01-09T21:48:03;5.82;;;1.27;;
76801;SDS011;66403;50.832;10.950;2023-01-09T21:53:04;5.63;;;1.45;;
76801;SDS011;66403;50.832;10.950;2023-01-09T21:58:04;4.10;;;1.92;;
76801;SDS011;66403;50.832;10.950;2023-01-09T22:03:05;2.45;;;1.45;;
76801;SDS011;66403;50.832;10.950;2023-01-09T22:08:08;5.07;;;1.30;;
76801;SDS011;66403;50.832;10.950;2023-01-09T22:13:08;2.95;;;1.10;;
76801;SDS011;66403;50.832;10.950;2023-01-09T22:18:16;1.85;;;1.10;;
76801;SDS011;66403;50.832;10.950;2023-01-09T22:23:17;3.92;;;1.27;;
76801;SDS011;66403;50.832;10.950;2023-01-09T22:28:17;1.40;;;1.10;;
76801;SDS011;66403;50.832;10.950;2023-01-09T22:33:18;1.65;;;1.17;;
76801;SDS011;66403;50.832;10.950;2023-01-09T22:38:19;1.98;;;1.27;;
76801;SDS011;66403;50.832;10.950;2023-01-09T22:43:19;3.55;;;1.45;;
76801;SDS011;66403;50.832;10.950;2023-01-09T22:48:20;2.47;;;1.17;;
76801;SDS011;66403;50.832;10.950;2023-01-09T22:53:20;2.33;;;1.52;;
76801;SDS011;66403;50.832;10.950;2023-01-09T22:58:21;1.85;;;1.08;;
76801;SDS011;66403;50.832;10.950;2023-01-09T23:03:22;1.92;;;1.35;;
76801;SDS011;66403;50.832;10.950;2023-01-09T23:08:23;2.85;;;1.48;;
76801;SDS011;66403;50.832;10.950;2023-01-09T23:13:23;3.30;;;1.23;;
76801;SDS011;66403;50.832;10.950;2023-01-09T23:18:24;2.55;;;1.15;;
76801;SDS011;66403;50.832;10.950;2023-01-09T23:23:25;2.58;;;1.30;;
76801;SDS011;66403;50.832;10.950;2023-01-09T23:28:27;2.45;;;1.45;;
76801;SDS011;66403;50.832;10.950;2023-01-09T23:33:29;2.75;;;1.30;;
76801;SDS011;66403;50.832;10.950;2023-01-09T23:38:29;1.55;;;1.35;;
76801;SDS011;66403;50.832;10.950;2023-01-09T23:43:30;1.40;;;1.30;;
76801;SDS011;66403;50.832;10.950;2023-01-09T23:48:30;5.90;;;1.60;;
76801;SDS011;66403;50.832;10.950;2023-01-09T23:53:31;4.80;;;1.67;;
76801;SDS011;66403;50.832;10.950;2023-01-09T23:58:34;2.45;;;1.23;;
